Tulsa, Oklahoma
Current Conditions -  °F | °C
As of 11:53 PM on Saturday 20 Dec 2014 (Local Time) from KTUL Reporting Station
Overcast Overcast  
Wind Chill:   Ceiling: 2000
Heat Index:   Visibility: 10mi
Dew Point:   Wind: 7mph
Humidity: 89%   Direction: 170°S
Pressure: 30.17"   Gusts: NA
Location:  36.15°N, 95.99°W
Report Text: KTUL 210553Z 17006KT 10SM OVC020 06/04 A3017 RMK AO2 SLP219 60000 T00610044 10067 20061 400720028 58007
Loading
Personal Weather Stations






























Interactive Weather Map New forecast layout! Learn more

10-Day Weather Forecast

Advertisements
Track Severe Weather on mobile